Aérodrome :
LOGIN :

S'inscrire | Disclaimer

   EN    FR    IT 

 










Légende :    VFR   VFR Marginal   IFR   IFR Intensif   IFR Très Intensif
Visi : 
Plafond : 
>= 8 km
>= 3000ft
5 à 8 km
1000 à 3000 ft
1500m à 5 km
500 à 1000 ft
800 à 1500m
200 à 500 ft
< 800m
< 200 ft
Symboles :   Orages  Brouillard  Fortes neiges  Fortes précipitations  Vent > 20 kt
SIGMETs :   Divers  Orages  Givrage  Turbulence  Onde Orograph.  Cendres Volcan.







- Altitude de l'aérodrome : 453 ft
- Code IATA : SBK
- Voir les cartes d'approche


LFRT - St Brieuc Armor

METARs EXPIRÉS :
  • 241430Z AUTO 26010KT 230V290 9999 OVC037 22/14 Q1018
  • 241400Z AUTO 27010KT 220V300 9999 OVC038 22/13 Q1018
  • 241330Z AUTO 25009KT 190V290 9999 BKN037 OVC043 22/14 Q1018
  • 241300Z AUTO 27011KT 220V290 9999 FEW037 OVC044 23/14 Q1018
  • 241230Z AUTO 25009KT 200V280 9999 OVC039 23/13 Q1018
  • 241200Z AUTO 26012KT 210V280 9999 BKN039 23/14 Q1018

Prévision TAF périmée.
Pas de NOTAMs connus pour ce terrain.



MET'MAP, la Météo Aéronautique d'un coup d'oeil ! - Copyright ORBIFLY Décembre 2007 - Disclaimer

ORBIFLY MET'MAP TEAM :

Programmation & Développement : Alexandra Zaïnal
Conception & Développement : Baudouin d'Aumeries
Co-Programmation & Développement : Marc-Olivier Méhu
Soutien technique & logistique : Manuel Goepfert

Contact : metmap@orbifly.com




SOURCES & CREDITS :

   NOAA